sensor_id;sensor_type;location;lat;lon;timestamp;temperature;humidity
69990;DHT22;57331;52.054;5.294;2022-08-19T00:01:48;19.50;40.10
69990;DHT22;57331;52.054;5.294;2022-08-19T00:04:22;20.00;51.30
69990;DHT22;57331;52.054;5.294;2022-08-19T00:06:49;19.70;51.10
69990;DHT22;57331;52.054;5.294;2022-08-19T00:09:18;18.30;50.50
69990;DHT22;57331;52.054;5.294;2022-08-19T00:11:46;20.80;52.10
69990;DHT22;57331;52.054;5.294;2022-08-19T00:14:14;19.50;51.50
69990;DHT22;57331;52.054;5.294;2022-08-19T00:16:44;18.20;50.90
69990;DHT22;57331;52.054;5.294;2022-08-19T00:19:11;20.40;47.80
69990;DHT22;57331;52.054;5.294;2022-08-19T00:21:38;18.30;51.10
69990;DHT22;57331;52.054;5.294;2022-08-19T00:24:08;19.20;40.70
69990;DHT22;57331;52.054;5.294;2022-08-19T00:26:35;18.50;51.50
69990;DHT22;57331;52.054;5.294;2022-08-19T00:29:03;19.20;41.00
69990;DHT22;57331;52.054;5.294;2022-08-19T00:31:31;18.00;51.40
69990;DHT22;57331;52.054;5.294;2022-08-19T00:33:58;19.80;52.50
69990;DHT22;57331;52.054;5.294;2022-08-19T00:36:25;19.40;52.20
69990;DHT22;57331;52.054;5.294;2022-08-19T00:41:21;19.30;52.60
69990;DHT22;57331;52.054;5.294;2022-08-19T00:44:13;18.60;52.10
69990;DHT22;57331;52.054;5.294;2022-08-19T00:46:43;19.00;41.20
69990;DHT22;57331;52.054;5.294;2022-08-19T00:49:37;18.90;41.00
69990;DHT22;57331;52.054;5.294;2022-08-19T00:52:11;20.10;48.30
69990;DHT22;57331;52.054;5.294;2022-08-19T00:54:40;19.30;52.30
69990;DHT22;57331;52.054;5.294;2022-08-19T00:57:10;20.20;52.80
69990;DHT22;57331;52.054;5.294;2022-08-19T00:59:43;18.60;52.00
69990;DHT22;57331;52.054;5.294;2022-08-19T01:02:28;18.70;40.60
69990;DHT22;57331;52.054;5.294;2022-08-19T01:07:23;19.70;52.70
69990;DHT22;57331;52.054;5.294;2022-08-19T01:09:51;18.60;40.80
69990;DHT22;57331;52.054;5.294;2022-08-19T01:14:46;17.60;51.80
69990;DHT22;57331;52.054;5.294;2022-08-19T01:17:14;18.50;40.90
69990;DHT22;57331;52.054;5.294;2022-08-19T01:19:42;18.10;52.40
69990;DHT22;57331;52.054;5.294;2022-08-19T01:22:25;17.30;52.00
69990;DHT22;57331;52.054;5.294;2022-08-19T01:24:59;17.20;52.30
69990;DHT22;57331;52.054;5.294;2022-08-19T01:27:26;18.20;53.00
69990;DHT22;57331;52.054;5.294;2022-08-19T01:30:13;18.60;50.70
69990;DHT22;57331;52.054;5.294;2022-08-19T01:32:40;17.70;53.20
69990;DHT22;57331;52.054;5.294;2022-08-19T01:35:08;19.50;54.30
69990;DHT22;57331;52.054;5.294;2022-08-19T01:37:54;19.20;46.60
69990;DHT22;57331;52.054;5.294;2022-08-19T01:40:23;18.70;53.90
69990;DHT22;57331;52.054;5.294;2022-08-19T01:42:51;18.10;42.00
69990;DHT22;57331;52.054;5.294;2022-08-19T01:45:21;17.90;53.80
69990;DHT22;57331;52.054;5.294;2022-08-19T01:47:48;19.20;54.50
69990;DHT22;57331;52.054;5.294;2022-08-19T01:52:55;17.40;53.60
69990;DHT22;57331;52.054;5.294;2022-08-19T01:55:35;18.10;42.10
69990;DHT22;57331;52.054;5.294;2022-08-19T01:58:11;17.30;53.40
69990;DHT22;57331;52.054;5.294;2022-08-19T02:05:33;17.00;53.50
69990;DHT22;57331;52.054;5.294;2022-08-19T02:08:00;17.30;53.80
69990;DHT22;57331;52.054;5.294;2022-08-19T02:12:54;17.80;54.40
69990;DHT22;57331;52.054;5.294;2022-08-19T02:15:21;16.90;53.90
69990;DHT22;57331;52.054;5.294;2022-08-19T02:17:48;16.80;53.90
69990;DHT22;57331;52.054;5.294;2022-08-19T02:20:16;17.10;54.30
69990;DHT22;57331;52.054;5.294;2022-08-19T02:22:43;19.00;55.40
69990;DHT22;57331;52.054;5.294;2022-08-19T02:25:12;17.90;54.90
69990;DHT22;57331;52.054;5.294;2022-08-19T02:27:40;17.70;54.80
69990;DHT22;57331;52.054;5.294;2022-08-19T02:30:10;17.80;42.90
69990;DHT22;57331;52.054;5.294;2022-08-19T02:32:40;19.20;55.80
69990;DHT22;57331;52.054;5.294;2022-08-19T02:35:12;17.10;53.40
69990;DHT22;57331;52.054;5.294;2022-08-19T02:37:40;18.50;55.70
69990;DHT22;57331;52.054;5.294;2022-08-19T02:40:28;18.30;55.80
69990;DHT22;57331;52.054;5.294;2022-08-19T02:45:22;18.50;56.00
69990;DHT22;57331;52.054;5.294;2022-08-19T02:50:17;18.90;54.90
69990;DHT22;57331;52.054;5.294;2022-08-19T02:55:11;16.80;55.30
69990;DHT22;57331;52.054;5.294;2022-08-19T02:57:38;18.60;52.80
69990;DHT22;57331;52.054;5.294;2022-08-19T03:00:07;18.80;56.40
69990;DHT22;57331;52.054;5.294;2022-08-19T03:02:36;17.80;55.80
69990;DHT22;57331;52.054;5.294;2022-08-19T03:05:04;17.50;43.30
69990;DHT22;57331;52.054;5.294;2022-08-19T03:09:58;17.20;55.20
69990;DHT22;57331;52.054;5.294;2022-08-19T03:14:52;16.30;54.80
69990;DHT22;57331;52.054;5.294;2022-08-19T03:19:47;17.40;55.30
69990;DHT22;57331;52.054;5.294;2022-08-19T03:22:13;16.20;51.70
69990;DHT22;57331;52.054;5.294;2022-08-19T03:24:40;17.30;55.40
69990;DHT22;57331;52.054;5.294;2022-08-19T03:27:07;16.10;54.70
69990;DHT22;57331;52.054;5.294;2022-08-19T03:29:36;16.30;54.20
69990;DHT22;57331;52.054;5.294;2022-08-19T03:32:10;17.00;55.40
69990;DHT22;57331;52.054;5.294;2022-08-19T03:37:24;16.80;55.30
69990;DHT22;57331;52.054;5.294;2022-08-19T03:39:52;18.10;56.20
69990;DHT22;57331;52.054;5.294;2022-08-19T03:45:06;18.00;56.30
69990;DHT22;57331;52.054;5.294;2022-08-19T03:47:33;18.10;56.60
69990;DHT22;57331;52.054;5.294;2022-08-19T03:50:00;15.90;55.60
69990;DHT22;57331;52.054;5.294;2022-08-19T03:52:27;16.10;55.70
69990;DHT22;57331;52.054;5.294;2022-08-19T03:54:55;15.90;55.60
69990;DHT22;57331;52.054;5.294;2022-08-19T03:57:21;17.90;56.80
69990;DHT22;57331;52.054;5.294;2022-08-19T04:02:39;15.70;55.90
69990;DHT22;57331;52.054;5.294;2022-08-19T04:05:06;17.70;51.80
69990;DHT22;57331;52.054;5.294;2022-08-19T04:10:03;16.80;56.70
69990;DHT22;57331;52.054;5.294;2022-08-19T04:12:30;17.70;57.30
69990;DHT22;57331;52.054;5.294;2022-08-19T04:14:57;16.40;56.50
69990;DHT22;57331;52.054;5.294;2022-08-19T04:17:24;15.60;56.10
69990;DHT22;57331;52.054;5.294;2022-08-19T04:22:19;15.50;56.20
69990;DHT22;57331;52.054;5.294;2022-08-19T04:24:46;15.60;56.40
69990;DHT22;57331;52.054;5.294;2022-08-19T04:27:13;15.50;55.10
69990;DHT22;57331;52.054;5.294;2022-08-19T04:32:10;15.80;56.60
69990;DHT22;57331;52.054;5.294;2022-08-19T04:37:25;16.60;44.20
69990;DHT22;57331;52.054;5.294;2022-08-19T04:39:57;15.60;48.80
69990;DHT22;57331;52.054;5.294;2022-08-19T04:42:42;16.40;57.20
69990;DHT22;57331;52.054;5.294;2022-08-19T04:45:12;16.60;44.30
69990;DHT22;57331;52.054;5.294;2022-08-19T04:47:41;16.60;44.20
69990;DHT22;57331;52.054;5.294;2022-08-19T04:52:51;16.60;44.00
69990;DHT22;57331;52.054;5.294;2022-08-19T04:57:46;16.30;56.70
69990;DHT22;57331;52.054;5.294;2022-08-19T05:00:13;15.70;56.70
69990;DHT22;57331;52.054;5.294;2022-08-19T05:10:04;16.60;44.40
69990;DHT22;57331;52.054;5.294;2022-08-19T05:17:27;16.80;44.50
69990;DHT22;57331;52.054;5.294;2022-08-19T05:20:00;16.30;57.10
69990;DHT22;57331;52.054;5.294;2022-08-19T05:22:46;17.00;44.30
69990;DHT22;57331;52.054;5.294;2022-08-19T05:25:17;16.10;56.70
69990;DHT22;57331;52.054;5.294;2022-08-19T05:27:46;16.00;56.40
69990;DHT22;57331;52.054;5.294;2022-08-19T05:30:14;17.20;44.00
69990;DHT22;57331;52.054;5.294;2022-08-19T05:32:41;18.50;57.50
69990;DHT22;57331;52.054;5.294;2022-08-19T05:35:09;17.30;44.20
69990;DHT22;57331;52.054;5.294;2022-08-19T05:37:37;18.50;57.30
69990;DHT22;57331;52.054;5.294;2022-08-19T05:40:07;16.20;56.20
69990;DHT22;57331;52.054;5.294;2022-08-19T05:42:34;16.80;56.60
69990;DHT22;57331;52.054;5.294;2022-08-19T05:47:28;17.90;57.70
69990;DHT22;57331;52.054;5.294;2022-08-19T05:54:52;16.90;57.50
69990;DHT22;57331;52.054;5.294;2022-08-19T05:59:48;17.90;57.70
69990;DHT22;57331;52.054;5.294;2022-08-19T06:02:28;18.20;44.90
69990;DHT22;57331;52.054;5.294;2022-08-19T06:12:30;19.20;57.80
69990;DHT22;57331;52.054;5.294;2022-08-19T06:15:04;17.30;56.90
69990;DHT22;57331;52.054;5.294;2022-08-19T06:17:32;17.50;57.10
69990;DHT22;57331;52.054;5.294;2022-08-19T06:20:03;19.10;57.90
69990;DHT22;57331;52.054;5.294;2022-08-19T06:22:30;18.20;57.30
69990;DHT22;57331;52.054;5.294;2022-08-19T06:24:57;20.20;57.90
69990;DHT22;57331;52.054;5.294;2022-08-19T06:27:24;19.40;57.40
69990;DHT22;57331;52.054;5.294;2022-08-19T06:34:46;18.20;56.20
69990;DHT22;57331;52.054;5.294;2022-08-19T06:37:13;18.90;50.90
69990;DHT22;57331;52.054;5.294;2022-08-19T06:39:42;19.40;56.70
69990;DHT22;57331;52.054;5.294;2022-08-19T06:42:11;20.60;57.70
69990;DHT22;57331;52.054;5.294;2022-08-19T06:44:41;21.10;57.90
69990;DHT22;57331;52.054;5.294;2022-08-19T06:47:18;19.70;45.90
69990;DHT22;57331;52.054;5.294;2022-08-19T06:49:56;20.30;57.70
69990;DHT22;57331;52.054;5.294;2022-08-19T06:52:30;20.10;57.70
69990;DHT22;57331;52.054;5.294;2022-08-19T06:55:01;18.70;57.10
69990;DHT22;57331;52.054;5.294;2022-08-19T07:07:24;21.30;59.40
69990;DHT22;57331;52.054;5.294;2022-08-19T07:09:51;20.00;58.30
69990;DHT22;57331;52.054;5.294;2022-08-19T07:12:28;20.50;58.40
69990;DHT22;57331;52.054;5.294;2022-08-19T07:14:57;21.10;58.60
69990;DHT22;57331;52.054;5.294;2022-08-19T07:17:25;20.10;45.70
69990;DHT22;57331;52.054;5.294;2022-08-19T07:22:21;20.90;58.00
69990;DHT22;57331;52.054;5.294;2022-08-19T07:24:51;20.30;45.40
69990;DHT22;57331;52.054;5.294;2022-08-19T07:27:19;20.50;56.80
69990;DHT22;57331;52.054;5.294;2022-08-19T07:29:52;20.50;44.80
69990;DHT22;57331;52.054;5.294;2022-08-19T07:34:52;20.80;56.00
69990;DHT22;57331;52.054;5.294;2022-08-19T07:39:47;20.90;55.70
69990;DHT22;57331;52.054;5.294;2022-08-19T07:42:14;19.90;55.50
69990;DHT22;57331;52.054;5.294;2022-08-19T07:44:41;20.60;55.90
69990;DHT22;57331;52.054;5.294;2022-08-19T07:47:16;22.00;56.60
69990;DHT22;57331;52.054;5.294;2022-08-19T07:50:06;20.70;43.90
69990;DHT22;57331;52.054;5.294;2022-08-19T07:52:33;22.30;56.30
69990;DHT22;57331;52.054;5.294;2022-08-19T07:55:04;21.30;55.30
69990;DHT22;57331;52.054;5.294;2022-08-19T07:57:31;21.50;55.20
69990;DHT22;57331;52.054;5.294;2022-08-19T08:04:52;20.00;53.10
69990;DHT22;57331;52.054;5.294;2022-08-19T08:07:39;20.20;52.50
69990;DHT22;57331;52.054;5.294;2022-08-19T08:10:24;20.70;52.30
69990;DHT22;57331;52.054;5.294;2022-08-19T08:12:53;21.40;45.70
69990;DHT22;57331;52.054;5.294;2022-08-19T08:15:37;22.40;52.20
69990;DHT22;57331;52.054;5.294;2022-08-19T08:18:10;21.70;40.30
69990;DHT22;57331;52.054;5.294;2022-08-19T08:20:37;20.60;50.90
69990;DHT22;57331;52.054;5.294;2022-08-19T08:25:56;21.10;50.00
69990;DHT22;57331;52.054;5.294;2022-08-19T08:28:25;23.20;50.70
69990;DHT22;57331;52.054;5.294;2022-08-19T08:30:56;23.90;50.00
69990;DHT22;57331;52.054;5.294;2022-08-19T08:33:25;22.50;38.20
69990;DHT22;57331;52.054;5.294;2022-08-19T08:36:02;21.60;48.10
69990;DHT22;57331;52.054;5.294;2022-08-19T08:38:31;23.30;48.30
69990;DHT22;57331;52.054;5.294;2022-08-19T08:41:22;21.90;47.60
69990;DHT22;57331;52.054;5.294;2022-08-19T08:43:55;24.40;48.60
69990;DHT22;57331;52.054;5.294;2022-08-19T08:46:28;22.50;46.40
69990;DHT22;57331;52.054;5.294;2022-08-19T08:54:37;23.50;35.00
69990;DHT22;57331;52.054;5.294;2022-08-19T08:57:15;24.70;45.20
69990;DHT22;57331;52.054;5.294;2022-08-19T08:59:45;24.60;45.00
69990;DHT22;57331;52.054;5.294;2022-08-19T09:02:18;22.70;43.00
69990;DHT22;57331;52.054;5.294;2022-08-19T09:04:45;25.00;44.20
69990;DHT22;57331;52.054;5.294;2022-08-19T09:07:45;23.90;33.90
69990;DHT22;57331;52.054;5.294;2022-08-19T09:16:14;24.50;31.80
69990;DHT22;57331;52.054;5.294;2022-08-19T09:18:52;24.80;40.50
69990;DHT22;57331;52.054;5.294;2022-08-19T09:21:21;24.20;41.00
69990;DHT22;57331;52.054;5.294;2022-08-19T09:23:56;25.00;40.10
69990;DHT22;57331;52.054;5.294;2022-08-19T09:26:26;23.90;37.40
69990;DHT22;57331;52.054;5.294;2022-08-19T09:29:13;25.10;29.50
69990;DHT22;57331;52.054;5.294;2022-08-19T09:31:40;24.90;29.40
69990;DHT22;57331;52.054;5.294;2022-08-19T09:34:07;24.80;29.80
69990;DHT22;57331;52.054;5.294;2022-08-19T09:36:48;24.40;29.70
69990;DHT22;57331;52.054;5.294;2022-08-19T09:39:19;25.00;41.10
69990;DHT22;57331;52.054;5.294;2022-08-19T09:41:46;24.50;30.30
69990;DHT22;57331;52.054;5.294;2022-08-19T09:44:15;24.60;30.30
69990;DHT22;57331;52.054;5.294;2022-08-19T09:46:41;25.30;30.40
69990;DHT22;57331;52.054;5.294;2022-08-19T09:49:08;25.90;30.10
69990;DHT22;57331;52.054;5.294;2022-08-19T09:51:35;25.20;29.50
69990;DHT22;57331;52.054;5.294;2022-08-19T09:54:03;25.50;28.70
69990;DHT22;57331;52.054;5.294;2022-08-19T09:56:32;27.40;36.80
69990;DHT22;57331;52.054;5.294;2022-08-19T09:59:00;28.00;35.30
69990;DHT22;57331;52.054;5.294;2022-08-19T10:01:29;26.80;26.50
69990;DHT22;57331;52.054;5.294;2022-08-19T10:03:58;26.80;26.00
69990;DHT22;57331;52.054;5.294;2022-08-19T10:06:27;27.00;26.20
69990;DHT22;57331;52.054;5.294;2022-08-19T10:09:13;27.00;25.60
69990;DHT22;57331;52.054;5.294;2022-08-19T10:11:42;27.10;25.70
69990;DHT22;57331;52.054;5.294;2022-08-19T10:14:19;27.20;25.20
69990;DHT22;57331;52.054;5.294;2022-08-19T10:16:49;27.40;25.60
69990;DHT22;57331;52.054;5.294;2022-08-19T10:19:19;27.70;25.40
69990;DHT22;57331;52.054;5.294;2022-08-19T10:21:51;27.50;24.80
69990;DHT22;57331;52.054;5.294;2022-08-19T10:24:18;26.40;33.80
69990;DHT22;57331;52.054;5.294;2022-08-19T10:26:47;25.80;34.90
69990;DHT22;57331;52.054;5.294;2022-08-19T10:29:23;26.40;26.50
69990;DHT22;57331;52.054;5.294;2022-08-19T10:32:03;25.90;27.10
69990;DHT22;57331;52.054;5.294;2022-08-19T10:34:39;26.00;27.80
69990;DHT22;57331;52.054;5.294;2022-08-19T10:37:16;26.50;37.10
69990;DHT22;57331;52.054;5.294;2022-08-19T10:39:57;26.70;28.00
69990;DHT22;57331;52.054;5.294;2022-08-19T10:42:24;27.20;27.20
69990;DHT22;57331;52.054;5.294;2022-08-19T10:44:51;27.40;26.10
69990;DHT22;57331;52.054;5.294;2022-08-19T10:47:18;27.60;25.80
69990;DHT22;57331;52.054;5.294;2022-08-19T10:49:53;27.70;25.50
69990;DHT22;57331;52.054;5.294;2022-08-19T10:52:40;27.50;25.20
69990;DHT22;57331;52.054;5.294;2022-08-19T10:55:19;26.90;33.20
69990;DHT22;57331;52.054;5.294;2022-08-19T10:58:14;27.20;25.70
69990;DHT22;57331;52.054;5.294;2022-08-19T11:00:41;27.40;26.00
69990;DHT22;57331;52.054;5.294;2022-08-19T11:03:10;28.70;33.40
69990;DHT22;57331;52.054;5.294;2022-08-19T11:05:37;27.90;25.50
69990;DHT22;57331;52.054;5.294;2022-08-19T11:08:07;28.20;25.50
69990;DHT22;57331;52.054;5.294;2022-08-19T11:10:51;27.30;32.60
69990;DHT22;57331;52.054;5.294;2022-08-19T11:13:20;27.80;32.10
69990;DHT22;57331;52.054;5.294;2022-08-19T11:16:28;28.00;25.20
69990;DHT22;57331;52.054;5.294;2022-08-19T11:18:54;28.10;31.10
69990;DHT22;57331;52.054;5.294;2022-08-19T11:21:27;28.30;24.40
69990;DHT22;57331;52.054;5.294;2022-08-19T11:23:57;28.60;24.30
69990;DHT22;57331;52.054;5.294;2022-08-19T11:26:25;28.80;23.80
69990;DHT22;57331;52.054;5.294;2022-08-19T11:28:53;28.90;23.40
69990;DHT22;57331;52.054;5.294;2022-08-19T11:31:29;28.50;28.90
69990;DHT22;57331;52.054;5.294;2022-08-19T11:33:58;29.40;23.00
69990;DHT22;57331;52.054;5.294;2022-08-19T11:36:26;30.20;28.20
69990;DHT22;57331;52.054;5.294;2022-08-19T11:38:54;29.80;21.80
69990;DHT22;57331;52.054;5.294;2022-08-19T11:41:22;29.90;21.20
69990;DHT22;57331;52.054;5.294;2022-08-19T11:43:51;30.00;20.80
69990;DHT22;57331;52.054;5.294;2022-08-19T11:46:19;30.00;21.10
69990;DHT22;57331;52.054;5.294;2022-08-19T11:48:46;30.40;21.30
69990;DHT22;57331;52.054;5.294;2022-08-19T11:51:16;30.60;20.80
69990;DHT22;57331;52.054;5.294;2022-08-19T11:53:44;30.80;20.30
69990;DHT22;57331;52.054;5.294;2022-08-19T11:56:12;29.30;24.40
69990;DHT22;57331;52.054;5.294;2022-08-19T11:58:39;30.70;19.40
69990;DHT22;57331;52.054;5.294;2022-08-19T12:01:10;28.70;25.60
69990;DHT22;57331;52.054;5.294;2022-08-19T12:03:45;29.90;20.30
69990;DHT22;57331;52.054;5.294;2022-08-19T12:06:16;29.60;20.80
69990;DHT22;57331;52.054;5.294;2022-08-19T12:08:44;27.90;28.30
69990;DHT22;57331;52.054;5.294;2022-08-19T12:11:12;28.70;22.30
69990;DHT22;57331;52.054;5.294;2022-08-19T12:13:41;27.60;29.50
69990;DHT22;57331;52.054;5.294;2022-08-19T12:16:13;29.20;29.40
69990;DHT22;57331;52.054;5.294;2022-08-19T12:18:41;28.80;30.30
69990;DHT22;57331;52.054;5.294;2022-08-19T12:21:10;28.90;30.60
69990;DHT22;57331;52.054;5.294;2022-08-19T12:23:39;28.60;24.10
69990;DHT22;57331;52.054;5.294;2022-08-19T12:26:06;29.30;23.00
69990;DHT22;57331;52.054;5.294;2022-08-19T12:28:33;29.90;28.00
69990;DHT22;57331;52.054;5.294;2022-08-19T12:30:59;30.20;28.10
69990;DHT22;57331;52.054;5.294;2022-08-19T12:33:26;29.50;21.40
69990;DHT22;57331;52.054;5.294;2022-08-19T12:36:00;29.30;21.60
69990;DHT22;57331;52.054;5.294;2022-08-19T12:38:28;29.20;22.20
69990;DHT22;57331;52.054;5.294;2022-08-19T12:40:55;29.00;26.80
69990;DHT22;57331;52.054;5.294;2022-08-19T12:43:26;29.70;21.30
69990;DHT22;57331;52.054;5.294;2022-08-19T12:45:53;30.00;20.80
69990;DHT22;57331;52.054;5.294;2022-08-19T12:48:21;30.00;20.80
69990;DHT22;57331;52.054;5.294;2022-08-19T12:51:05;30.10;20.20
69990;DHT22;57331;52.054;5.294;2022-08-19T12:53:33;30.10;20.20
69990;DHT22;57331;52.054;5.294;2022-08-19T12:56:05;29.90;20.20
69990;DHT22;57331;52.054;5.294;2022-08-19T12:58:35;29.70;20.30
69990;DHT22;57331;52.054;5.294;2022-08-19T13:01:13;29.40;20.20
69990;DHT22;57331;52.054;5.294;2022-08-19T13:03:45;29.00;20.80
69990;DHT22;57331;52.054;5.294;2022-08-19T13:06:12;27.60;27.70
69990;DHT22;57331;52.054;5.294;2022-08-19T13:08:44;28.10;28.50
69990;DHT22;57331;52.054;5.294;2022-08-19T13:11:15;28.10;22.50
69990;DHT22;57331;52.054;5.294;2022-08-19T13:13:45;26.30;30.00
69990;DHT22;57331;52.054;5.294;2022-08-19T13:16:14;26.90;31.30
69990;DHT22;57331;52.054;5.294;2022-08-19T13:18:42;27.40;32.40
69990;DHT22;57331;52.054;5.294;2022-08-19T13:21:11;27.00;25.30
69990;DHT22;57331;52.054;5.294;2022-08-19T13:23:40;26.90;25.60
69990;DHT22;57331;52.054;5.294;2022-08-19T13:26:10;25.90;33.90
69990;DHT22;57331;52.054;5.294;2022-08-19T13:28:38;26.50;26.40
69990;DHT22;57331;52.054;5.294;2022-08-19T13:31:26;26.80;36.00
69990;DHT22;57331;52.054;5.294;2022-08-19T13:34:13;26.00;27.60
69990;DHT22;57331;52.054;5.294;2022-08-19T13:36:40;24.40;36.30
69990;DHT22;57331;52.054;5.294;2022-08-19T13:39:08;24.60;37.40
69990;DHT22;57331;52.054;5.294;2022-08-19T13:41:36;23.90;38.90
69990;DHT22;57331;52.054;5.294;2022-08-19T13:44:04;23.70;38.60
69990;DHT22;57331;52.054;5.294;2022-08-19T13:46:32;23.60;39.00
69990;DHT22;57331;52.054;5.294;2022-08-19T13:48:59;25.00;41.00
69990;DHT22;57331;52.054;5.294;2022-08-19T13:51:26;23.30;41.20
69990;DHT22;57331;52.054;5.294;2022-08-19T13:56:21;26.00;44.70
69990;DHT22;57331;52.054;5.294;2022-08-19T14:01:22;24.90;45.90
69990;DHT22;57331;52.054;5.294;2022-08-19T14:03:50;22.80;39.10
69990;DHT22;57331;52.054;5.294;2022-08-19T14:06:17;23.90;47.10
69990;DHT22;57331;52.054;5.294;2022-08-19T14:08:46;23.90;47.20
69990;DHT22;57331;52.054;5.294;2022-08-19T14:11:13;24.30;47.70
69990;DHT22;57331;52.054;5.294;2022-08-19T14:16:09;22.60;46.90
69990;DHT22;57331;52.054;5.294;2022-08-19T14:18:37;23.70;47.40
69990;DHT22;57331;52.054;5.294;2022-08-19T14:21:05;22.80;47.10
69990;DHT22;57331;52.054;5.294;2022-08-19T14:26:13;23.80;37.90
69990;DHT22;57331;52.054;5.294;2022-08-19T14:28:42;23.90;47.40
69990;DHT22;57331;52.054;5.294;2022-08-19T14:31:14;22.70;46.70
69990;DHT22;57331;52.054;5.294;2022-08-19T14:33:46;23.90;38.10
69990;DHT22;57331;52.054;5.294;2022-08-19T14:36:13;25.30;48.10
69990;DHT22;57331;52.054;5.294;2022-08-19T14:38:40;23.60;46.90
69990;DHT22;57331;52.054;5.294;2022-08-19T14:41:16;24.40;37.50
69990;DHT22;57331;52.054;5.294;2022-08-19T14:43:45;24.60;36.80
69990;DHT22;57331;52.054;5.294;2022-08-19T14:46:16;24.90;36.60
69990;DHT22;57331;52.054;5.294;2022-08-19T14:48:43;26.00;45.50
69990;DHT22;57331;52.054;5.294;2022-08-19T14:51:10;26.10;44.70
69990;DHT22;57331;52.054;5.294;2022-08-19T14:53:38;25.50;35.00
69990;DHT22;57331;52.054;5.294;2022-08-19T14:56:10;26.80;44.10
69990;DHT22;57331;52.054;5.294;2022-08-19T14:58:38;26.20;43.60
69990;DHT22;57331;52.054;5.294;2022-08-19T15:01:07;24.10;42.40
69990;DHT22;57331;52.054;5.294;2022-08-19T15:03:34;25.00;35.80
69990;DHT22;57331;52.054;5.294;2022-08-19T15:06:02;27.40;44.50
69990;DHT22;57331;52.054;5.294;2022-08-19T15:08:32;27.80;43.40
69990;DHT22;57331;52.054;5.294;2022-08-19T15:11:00;26.40;34.40
69990;DHT22;57331;52.054;5.294;2022-08-19T15:13:29;26.50;33.60
69990;DHT22;57331;52.054;5.294;2022-08-19T15:15:56;26.40;42.50
69990;DHT22;57331;52.054;5.294;2022-08-19T15:18:24;25.20;40.10
69990;DHT22;57331;52.054;5.294;2022-08-19T15:20:50;28.10;41.90
69990;DHT22;57331;52.054;5.294;2022-08-19T15:23:19;26.70;32.80
69990;DHT22;57331;52.054;5.294;2022-08-19T15:25:46;27.00;41.00
69990;DHT22;57331;52.054;5.294;2022-08-19T15:28:13;27.90;38.90
69990;DHT22;57331;52.054;5.294;2022-08-19T15:30:42;28.70;38.20
69990;DHT22;57331;52.054;5.294;2022-08-19T15:33:10;31.00;35.20
69990;DHT22;57331;52.054;5.294;2022-08-19T15:35:41;29.80;27.60
69990;DHT22;57331;52.054;5.294;2022-08-19T15:38:09;30.00;27.40
69990;DHT22;57331;52.054;5.294;2022-08-19T15:40:40;30.10;26.10
69990;DHT22;57331;52.054;5.294;2022-08-19T15:43:07;30.60;25.60
69990;DHT22;57331;52.054;5.294;2022-08-19T15:45:34;29.10;30.90
69990;DHT22;57331;52.054;5.294;2022-08-19T15:48:03;28.00;32.50
69990;DHT22;57331;52.054;5.294;2022-08-19T15:50:31;28.50;26.10
69990;DHT22;57331;52.054;5.294;2022-08-19T15:53:02;26.70;36.60
69990;DHT22;57331;52.054;5.294;2022-08-19T15:55:32;26.90;38.40
69990;DHT22;57331;52.054;5.294;2022-08-19T15:58:07;27.10;29.90
69990;DHT22;57331;52.054;5.294;2022-08-19T16:00:56;27.30;30.70
69990;DHT22;57331;52.054;5.294;2022-08-19T16:03:43;28.60;30.40
69990;DHT22;57331;52.054;5.294;2022-08-19T16:06:30;29.70;32.30
69990;DHT22;57331;52.054;5.294;2022-08-19T16:08:59;30.40;26.20
69990;DHT22;57331;52.054;5.294;2022-08-19T16:11:30;31.50;29.10
69990;DHT22;57331;52.054;5.294;2022-08-19T16:13:58;30.10;27.60
69990;DHT22;57331;52.054;5.294;2022-08-19T16:16:29;30.30;23.00
69990;DHT22;57331;52.054;5.294;2022-08-19T16:19:02;29.50;24.10
69990;DHT22;57331;52.054;5.294;2022-08-19T16:21:29;28.90;25.60
69990;DHT22;57331;52.054;5.294;2022-08-19T16:24:01;27.90;26.30
69990;DHT22;57331;52.054;5.294;2022-08-19T16:26:29;27.40;27.50
69990;DHT22;57331;52.054;5.294;2022-08-19T16:28:58;26.60;37.10
69990;DHT22;57331;52.054;5.294;2022-08-19T16:31:26;26.60;29.10
69990;DHT22;57331;52.054;5.294;2022-08-19T16:33:54;27.30;38.60
69990;DHT22;57331;52.054;5.294;2022-08-19T16:36:21;26.40;30.00
69990;DHT22;57331;52.054;5.294;2022-08-19T16:38:52;27.20;40.50
69990;DHT22;57331;52.054;5.294;2022-08-19T16:41:20;26.00;31.50
69990;DHT22;57331;52.054;5.294;2022-08-19T16:43:48;25.60;32.00
69990;DHT22;57331;52.054;5.294;2022-08-19T16:46:19;25.20;43.80
69990;DHT22;57331;52.054;5.294;2022-08-19T16:48:49;24.50;43.40
69990;DHT22;57331;52.054;5.294;2022-08-19T16:51:16;25.30;46.10
69990;DHT22;57331;52.054;5.294;2022-08-19T16:53:44;26.00;45.40
69990;DHT22;57331;52.054;5.294;2022-08-19T16:58:39;24.00;44.10
69990;DHT22;57331;52.054;5.294;2022-08-19T17:01:07;26.30;46.20
69990;DHT22;57331;52.054;5.294;2022-08-19T17:03:36;26.20;46.20
69990;DHT22;57331;52.054;5.294;2022-08-19T17:06:14;23.50;44.90
69990;DHT22;57331;52.054;5.294;2022-08-19T17:08:48;23.30;45.00
69990;DHT22;57331;52.054;5.294;2022-08-19T17:11:16;25.80;46.80
69990;DHT22;57331;52.054;5.294;2022-08-19T17:16:18;23.80;46.10
69990;DHT22;57331;52.054;5.294;2022-08-19T17:18:45;23.60;46.40
69990;DHT22;57331;52.054;5.294;2022-08-19T17:21:12;26.00;47.30
69990;DHT22;57331;52.054;5.294;2022-08-19T17:23:40;25.60;47.40
69990;DHT22;57331;52.054;5.294;2022-08-19T17:26:11;24.50;46.50
69990;DHT22;57331;52.054;5.294;2022-08-19T17:28:49;26.10;46.30
69990;DHT22;57331;52.054;5.294;2022-08-19T17:31:18;25.30;37.50
69990;DHT22;57331;52.054;5.294;2022-08-19T17:33:46;25.30;45.60
69990;DHT22;57331;52.054;5.294;2022-08-19T17:36:19;24.80;43.40
69990;DHT22;57331;52.054;5.294;2022-08-19T17:38:50;25.70;44.70
69990;DHT22;57331;52.054;5.294;2022-08-19T17:41:17;24.20;43.50
69990;DHT22;57331;52.054;5.294;2022-08-19T17:43:44;25.30;36.30
69990;DHT22;57331;52.054;5.294;2022-08-19T17:46:12;26.40;46.20
69990;DHT22;57331;52.054;5.294;2022-08-19T17:48:47;23.50;45.10
69990;DHT22;57331;52.054;5.294;2022-08-19T17:54:01;23.60;45.70
69990;DHT22;57331;52.054;5.294;2022-08-19T17:56:29;23.80;46.00
69990;DHT22;57331;52.054;5.294;2022-08-19T17:58:56;25.10;47.40
69990;DHT22;57331;52.054;5.294;2022-08-19T18:01:28;23.70;37.80
69990;DHT22;57331;52.054;5.294;2022-08-19T18:04:16;22.20;46.70
69990;DHT22;57331;52.054;5.294;2022-08-19T18:09:24;22.20;46.90
69990;DHT22;57331;52.054;5.294;2022-08-19T18:11:53;22.30;47.40
69990;DHT22;57331;52.054;5.294;2022-08-19T18:14:24;23.30;38.70
69990;DHT22;57331;52.054;5.294;2022-08-19T18:17:07;22.40;47.80
69990;DHT22;57331;52.054;5.294;2022-08-19T18:19:40;22.40;48.00